Time;durP1;ratioP1;P1;durP2;ratioP2;P2;SDS_P1;SDS_P2;PMS_P1;PMS_P2;Temp;Humidity;BMP_temperature;BMP_pressure;BME280_temperature;BME280_humidity;BME280_pressure;Samples;Min_cycle;Max_cycle;Signal;HPM_P1;HPM_P2
2023/09/04 00:00:27;;;;;;;6.77;3.73;;;16.10;99.90;;;;;;5039493;28;20963;-59
2023/09/04 00:02:52;;;;;;;5.27;3.70;;;16.10;99.90;;;;;;5042340;28;20209;-65
2023/09/04 00:05:18;;;;;;;4.50;3.70;;;16.10;99.90;;;;;;5034013;28;20910;-69
2023/09/04 00:07:44;;;;;;;4.13;3.80;;;16.10;99.90;;;;;;5034624;28;20250;-56
2023/09/04 00:10:11;;;;;;;4.43;3.80;;;16.10;99.90;;;;;;5037877;28;20217;-56
2023/09/04 00:12:36;;;;;;;3.70;2.93;;;16.00;99.90;;;;;;5041224;28;20209;-58
2023/09/04 00:15:02;;;;;;;3.40;3.10;;;16.00;99.90;;;;;;5032921;28;20202;-58
2023/09/04 00:17:30;;;;;;;3.30;3.00;;;15.90;99.90;;;;;;5033075;28;20782;-56
2023/09/04 00:19:55;;;;;;;5.30;2.83;;;15.90;99.90;;;;;;5035446;28;20256;-55
2023/09/04 00:22:21;;;;;;;3.17;2.87;;;15.90;99.90;;;;;;5034514;28;20203;-55
2023/09/04 00:24:46;;;;;;;2.97;2.70;;;15.90;99.90;;;;;;5046623;28;20206;-54
2023/09/04 00:27:11;;;;;;;3.10;2.83;;;15.90;99.90;;;;;;5038583;28;20604;-55
2023/09/04 00:29:37;;;;;;;3.80;3.27;;;16.00;99.90;;;;;;5029836;28;20277;-54
2023/09/04 00:32:03;;;;;;;3.23;2.93;;;16.00;99.90;;;;;;5034823;28;20207;-55
2023/09/04 00:34:28;;;;;;;3.37;2.77;;;15.90;99.90;;;;;;5031847;28;20206;-55
2023/09/04 00:36:54;;;;;;;4.70;3.10;;;15.90;99.90;;;;;;5036731;28;20679;-55
2023/09/04 00:39:19;;;;;;;3.10;2.90;;;15.80;99.90;;;;;;5036814;28;20194;-55
2023/09/04 00:41:46;;;;;;;3.20;2.90;;;15.80;99.90;;;;;;5037133;28;20274;-55
2023/09/04 00:44:12;;;;;;;3.13;2.80;;;15.70;99.90;;;;;;5031697;28;20198;-55
2023/09/04 00:46:38;;;;;;;3.77;3.47;;;15.70;99.90;;;;;;5035544;28;20735;-55
2023/09/04 00:49:04;;;;;;;3.53;3.20;;;15.70;99.90;;;;;;5034050;28;20205;-55
2023/09/04 00:51:29;;;;;;;3.30;3.00;;;15.70;99.90;;;;;;5038899;28;20823;-55
2023/09/04 00:53:55;;;;;;;3.17;2.97;;;15.70;99.90;;;;;;5039747;28;20232;-55
2023/09/04 00:56:23;;;;;;;3.10;2.77;;;15.70;99.90;;;;;;5045043;28;20202;-54
2023/09/04 00:58:49;;;;;;;3.57;3.30;;;15.70;99.90;;;;;;5042655;28;20284;-56
2023/09/04 01:01:14;;;;;;;3.83;3.50;;;15.70;99.90;;;;;;5034638;28;20237;-55
2023/09/04 01:03:40;;;;;;;3.77;3.47;;;15.60;99.90;;;;;;5040499;28;20195;-55
2023/09/04 01:06:05;;;;;;;4.53;3.23;;;15.50;99.90;;;;;;5028335;28;20650;-55
2023/09/04 01:08:31;;;;;;;3.47;3.20;;;15.50;99.90;;;;;;5034300;28;20210;-54
2023/09/04 01:11:35;;;;;;;3.40;3.20;;;15.50;99.90;;;;;;5032915;28;20201;-54
2023/09/04 01:14:08;;;;;;;3.50;3.20;;;15.30;99.90;;;;;;5032051;28;20217;-54
2023/09/04 01:16:34;;;;;;;5.80;2.90;;;15.30;99.90;;;;;;5031953;28;20274;-57
2023/09/04 01:19:01;;;;;;;3.63;3.17;;;15.30;99.90;;;;;;5013147;28;20873;-56
2023/09/04 01:21:26;;;;;;;4.07;3.40;;;15.20;99.90;;;;;;5026315;28;20202;-55
2023/09/04 01:23:52;;;;;;;3.27;3.07;;;15.20;99.90;;;;;;5039083;28;20203;-55
2023/09/04 01:26:39;;;;;;;5.23;3.60;;;15.20;99.90;;;;;;5046983;28;20793;-55
2023/09/04 01:29:39;;;;;;;3.63;3.20;;;15.30;99.90;;;;;;5037367;28;20204;-55
2023/09/04 01:32:12;;;;;;;3.57;3.37;;;15.20;99.90;;;;;;5036537;28;20578;-55
2023/09/04 01:34:42;;;;;;;5.13;3.40;;;15.30;99.90;;;;;;5021241;28;20191;-55
2023/09/04 01:37:08;;;;;;;4.17;3.00;;;15.30;99.90;;;;;;5036309;28;20219;-54
2023/09/04 01:39:34;;;;;;;3.67;3.37;;;15.40;99.90;;;;;;5038629;28;20199;-55
2023/09/04 01:42:00;;;;;;;3.27;3.03;;;15.40;99.90;;;;;;5042501;28;20194;-55
2023/09/04 01:44:25;;;;;;;4.10;3.80;;;15.30;99.90;;;;;;5042982;28;20239;-55
2023/09/04 01:46:51;;;;;;;3.47;3.17;;;15.20;99.90;;;;;;5020852;28;20228;-55
2023/09/04 01:49:16;;;;;;;3.80;3.37;;;15.10;99.90;;;;;;5026728;28;20202;-57
2023/09/04 01:51:42;;;;;;;3.77;3.10;;;15.10;99.90;;;;;;5042463;28;20252;-55
2023/09/04 01:54:08;;;;;;;3.37;3.07;;;15.00;99.90;;;;;;5046150;28;20203;-55
2023/09/04 01:56:33;;;;;;;4.33;3.20;;;14.90;99.90;;;;;;5044613;28;20680;-55
2023/09/04 01:58:59;;;;;;;3.60;3.30;;;14.90;99.90;;;;;;5046090;28;20221;-55
2023/09/04 02:01:24;;;;;;;4.53;4.13;;;14.90;99.90;;;;;;5042286;28;20205;-55
2023/09/04 02:03:54;;;;;;;3.83;3.13;;;15.00;99.90;;;;;;5036977;28;20660;-56
2023/09/04 02:06:20;;;;;;;5.13;3.33;;;15.10;99.90;;;;;;5035152;28;20196;-57
2023/09/04 02:08:46;;;;;;;3.50;3.27;;;15.10;99.90;;;;;;5034834;28;20253;-56
2023/09/04 02:11:11;;;;;;;3.43;3.20;;;15.10;99.90;;;;;;5037777;28;20780;-56
2023/09/04 02:13:36;;;;;;;3.60;3.30;;;15.00;99.90;;;;;;5043507;28;20212;-56
2023/09/04 02:16:02;;;;;;;4.93;3.03;;;15.10;99.90;;;;;;5034998;28;20245;-56
2023/09/04 02:18:28;;;;;;;3.23;3.03;;;15.00;99.90;;;;;;5038921;28;20211;-57
2023/09/04 02:20:53;;;;;;;3.13;2.93;;;15.00;99.90;;;;;;5042149;28;20538;-56
2023/09/04 02:23:18;;;;;;;3.70;3.30;;;15.00;99.90;;;;;;5034528;28;20556;-56
2023/09/04 02:25:47;;;;;;;3.53;3.20;;;15.00;99.90;;;;;;5033895;28;20864;-56
2023/09/04 02:28:12;;;;;;;4.37;3.47;;;15.00;99.90;;;;;;5038045;28;20245;-55
2023/09/04 02:30:38;;;;;;;6.27;3.50;;;14.90;99.90;;;;;;5038938;28;20204;-55
2023/09/04 02:33:04;;;;;;;8.47;3.47;;;15.00;99.90;;;;;;5039556;28;20217;-56
2023/09/04 02:35:30;;;;;;;3.73;3.27;;;14.90;99.90;;;;;;5024252;28;20661;-57
2023/09/04 02:37:55;;;;;;;4.40;4.00;;;14.70;99.90;;;;;;5038377;28;20212;-61
2023/09/04 02:40:21;;;;;;;4.50;3.73;;;14.70;99.90;;;;;;5041517;28;22302;-57
2023/09/04 02:42:46;;;;;;;5.00;4.00;;;14.70;99.90;;;;;;5032270;28;20279;-57
2023/09/04 02:45:12;;;;;;;4.33;3.93;;;14.70;99.90;;;;;;5030530;28;20291;-57
2023/09/04 02:47:37;;;;;;;4.67;3.60;;;14.50;99.90;;;;;;5042130;28;20218;-57
2023/09/04 02:50:06;;;;;;;4.70;3.83;;;14.50;99.90;;;;;;5039642;28;20490;-54
2023/09/04 02:52:32;;;;;;;4.17;3.73;;;14.60;99.90;;;;;;5035394;28;20199;-56
2023/09/04 02:54:59;;;;;;;4.17;3.87;;;14.60;99.90;;;;;;5035753;28;20195;-57
2023/09/04 02:57:25;;;;;;;3.90;3.40;;;14.60;99.90;;;;;;5041190;28;20679;-55
2023/09/04 02:59:50;;;;;;;4.63;3.77;;;14.50;99.90;;;;;;5037730;28;20286;-55
2023/09/04 03:02:16;;;;;;;5.87;3.73;;;14.50;99.90;;;;;;5037804;28;20217;-55
2023/09/04 03:04:41;;;;;;;4.57;3.73;;;14.50;99.90;;;;;;5033092;28;20202;-55
2023/09/04 03:07:06;;;;;;;3.90;3.60;;;14.50;99.90;;;;;;5033730;28;20214;-56
2023/09/04 03:09:32;;;;;;;4.50;4.07;;;14.60;99.90;;;;;;5040195;28;20661;-55
2023/09/04 03:11:58;;;;;;;5.97;3.20;;;14.70;99.90;;;;;;5032173;28;20208;-55
2023/09/04 03:14:24;;;;;;;3.90;3.53;;;14.60;99.90;;;;;;5037691;28;20199;-55
2023/09/04 03:16:49;;;;;;;4.33;4.00;;;14.70;99.90;;;;;;5040125;28;21068;-55
2023/09/04 03:19:15;;;;;;;3.53;3.27;;;14.70;99.90;;;;;;5040228;28;20222;-55
2023/09/04 03:21:40;;;;;;;4.10;3.30;;;14.80;99.90;;;;;;5020663;28;20685;-56
2023/09/04 03:24:06;;;;;;;3.93;3.63;;;14.80;99.90;;;;;;5035151;28;20210;-55
2023/09/04 03:26:32;;;;;;;3.27;3.07;;;14.90;99.90;;;;;;5037869;28;20541;-55
2023/09/04 03:28:57;;;;;;;5.73;3.90;;;15.00;99.90;;;;;;5035080;28;20604;-55
2023/09/04 03:31:23;;;;;;;5.50;3.57;;;15.00;99.90;;;;;;5041788;28;20211;-55
2023/09/04 03:33:48;;;;;;;4.40;4.00;;;15.10;99.90;;;;;;5034130;28;20261;-54
2023/09/04 03:36:14;;;;;;;4.17;3.47;;;15.10;99.90;;;;;;5030675;28;20226;-54
2023/09/04 03:38:39;;;;;;;4.53;3.87;;;15.10;99.90;;;;;;5035190;28;20213;-55
2023/09/04 03:41:05;;;;;;;3.90;3.43;;;15.00;99.90;;;;;;5038399;28;20202;-55
2023/09/04 03:43:31;;;;;;;4.03;3.67;;;15.00;99.90;;;;;;5037426;28;20191;-54
2023/09/04 03:45:56;;;;;;;10.23;6.07;;;14.90;99.90;;;;;;5019983;28;20210;-54
2023/09/04 03:48:22;;;;;;;5.60;4.53;;;15.00;99.90;;;;;;5033997;28;20222;-54
2023/09/04 03:50:48;;;;;;;5.63;4.40;;;15.00;99.90;;;;;;5019077;28;20968;-55
2023/09/04 03:53:13;;;;;;;4.97;4.37;;;15.00;99.90;;;;;;5018720;28;20205;-55
2023/09/04 03:55:39;;;;;;;5.00;4.47;;;15.00;99.90;;;;;;5037985;28;20206;-54
2023/09/04 03:58:04;;;;;;;4.87;4.40;;;15.00;99.90;;;;;;5033167;28;20719;-55
2023/09/04 04:00:30;;;;;;;4.73;4.20;;;14.90;99.90;;;;;;5033271;28;20259;-54
2023/09/04 04:02:56;;;;;;;5.50;5.00;;;14.90;99.90;;;;;;5032112;28;20206;-53
2023/09/04 04:05:23;;;;;;;5.67;4.50;;;15.00;99.90;;;;;;5029035;28;20192;-55
2023/09/04 04:07:49;;;;;;;5.57;4.57;;;15.00;99.90;;;;;;5031199;28;20260;-55
2023/09/04 04:10:15;;;;;;;4.10;3.67;;;15.00;99.90;;;;;;5031483;28;20190;-55
2023/09/04 04:12:41;;;;;;;4.90;4.40;;;15.00;99.90;;;;;;5032514;28;20202;-55
2023/09/04 04:15:08;;;;;;;7.37;4.93;;;14.90;99.90;;;;;;5029773;28;20222;-55
2023/09/04 04:17:34;;;;;;;5.20;4.73;;;14.90;99.90;;;;;;5035482;28;20306;-55
2023/09/04 04:20:00;;;;;;;4.87;4.47;;;14.90;99.90;;;;;;5037393;28;20205;-56
2023/09/04 04:22:25;;;;;;;4.53;4.13;;;14.80;99.90;;;;;;5030049;28;20191;-55
2023/09/04 04:24:51;;;;;;;5.50;4.10;;;14.80;99.90;;;;;;5036901;28;20203;-55
2023/09/04 04:27:17;;;;;;;4.80;4.40;;;14.80;99.90;;;;;;5038767;28;20201;-62
2023/09/04 04:29:43;;;;;;;6.63;5.13;;;14.80;99.90;;;;;;5035575;28;20210;-58
2023/09/04 04:32:09;;;;;;;6.33;4.60;;;14.80;99.90;;;;;;5039199;28;20199;-54
2023/09/04 04:34:34;;;;;;;6.13;4.00;;;14.80;99.90;;;;;;5037809;28;20283;-54
2023/09/04 04:37:00;;;;;;;5.37;4.43;;;14.80;99.90;;;;;;5032883;28;20203;-54
2023/09/04 04:39:25;;;;;;;9.50;4.60;;;14.80;99.90;;;;;;5032678;28;20206;-55
2023/09/04 04:41:51;;;;;;;9.20;6.07;;;14.70;99.90;;;;;;5032552;28;20194;-55
2023/09/04 04:44:17;;;;;;;12.60;6.47;;;14.70;99.90;;;;;;5027551;28;20210;-55
2023/09/04 04:46:43;;;;;;;7.17;5.13;;;14.70;99.90;;;;;;5032273;28;20248;-54
2023/09/04 04:49:09;;;;;;;6.63;5.43;;;14.80;99.90;;;;;;5032845;28;20202;-55
2023/09/04 04:51:34;;;;;;;7.07;5.50;;;14.80;99.90;;;;;;5014719;28;20211;-55
2023/09/04 04:54:00;;;;;;;5.90;5.40;;;14.90;99.90;;;;;;5038526;28;20199;-56
2023/09/04 04:56:25;;;;;;;6.73;4.90;;;14.90;99.90;;;;;;5029065;28;20191;-55
2023/09/04 04:58:51;;;;;;;6.00;5.43;;;14.90;99.90;;;;;;5041567;28;20336;-55
2023/09/04 05:01:16;;;;;;;8.60;5.40;;;14.90;99.90;;;;;;5028830;28;20297;-55
2023/09/04 05:03:42;;;;;;;5.27;4.77;;;15.00;99.90;;;;;;5040453;28;21028;-55
2023/09/04 05:06:08;;;;;;;6.90;5.57;;;15.00;99.90;;;;;;5031610;28;20194;-57
2023/09/04 05:08:34;;;;;;;7.77;6.53;;;15.00;99.90;;;;;;5028926;28;20203;-55
2023/09/04 05:11:04;;;;;;;6.10;5.50;;;15.00;99.90;;;;;;5016400;28;20204;-55
2023/09/04 05:13:30;;;;;;;10.47;5.93;;;15.00;99.90;;;;;;5011994;28;20213;-55
2023/09/04 05:15:56;;;;;;;7.33;6.43;;;15.00;99.90;;;;;;5028547;28;20194;-55
2023/09/04 05:18:22;;;;;;;7.33;5.70;;;15.00;99.90;;;;;;5031826;28;20899;-56
2023/09/04 05:20:48;;;;;;;4.90;4.40;;;15.00;99.90;;;;;;5014152;28;20203;-56
2023/09/04 05:23:14;;;;;;;6.23;5.10;;;15.00;99.90;;;;;;5031303;28;20232;-55
2023/09/04 05:25:50;;;;;;;6.30;5.60;;;15.00;99.90;;;;;;5032822;28;20265;-57
2023/09/04 05:28:15;;;;;;;5.97;5.37;;;15.00;99.90;;;;;;5033102;28;20206;-63
2023/09/04 05:30:41;;;;;;;5.67;4.97;;;15.00;99.90;;;;;;5030640;28;20199;-57
2023/09/04 05:33:06;;;;;;;5.67;5.03;;;15.00;99.90;;;;;;5033419;28;20707;-58
2023/09/04 05:35:32;;;;;;;5.90;5.40;;;15.00;99.90;;;;;;5026383;28;20276;-56
2023/09/04 05:37:58;;;;;;;7.07;4.67;;;15.10;99.90;;;;;;5031092;28;20227;-56
2023/09/04 05:40:24;;;;;;;6.03;5.33;;;15.10;99.90;;;;;;5038536;28;20258;-56
2023/09/04 05:42:50;;;;;;;7.63;6.20;;;15.20;99.90;;;;;;5034029;28;20208;-55
2023/09/04 05:45:16;;;;;;;6.63;5.77;;;15.20;99.90;;;;;;5010131;28;20684;-55
2023/09/04 05:47:42;;;;;;;7.77;5.63;;;15.30;99.90;;;;;;5034541;28;20316;-55
2023/09/04 05:50:09;;;;;;;5.37;4.83;;;15.30;99.90;;;;;;5033238;28;20198;-55
2023/09/04 05:52:35;;;;;;;5.87;5.00;;;15.30;99.90;;;;;;5032467;28;20852;-55
2023/09/04 05:55:01;;;;;;;5.10;4.70;;;15.30;99.90;;;;;;5040291;28;20205;-56
2023/09/04 05:57:26;;;;;;;6.70;5.60;;;15.30;99.90;;;;;;5025972;28;20944;-55
2023/09/04 05:59:52;;;;;;;6.70;6.10;;;15.30;99.90;;;;;;5034331;28;20201;-55
2023/09/04 06:02:18;;;;;;;8.87;6.03;;;15.40;99.90;;;;;;5033534;28;20202;-56
2023/09/04 06:04:43;;;;;;;7.80;6.47;;;15.30;99.90;;;;;;5032119;28;20213;-55
2023/09/04 06:07:10;;;;;;;6.90;6.20;;;15.20;99.90;;;;;;5015950;28;20515;-55
2023/09/04 06:09:37;;;;;;;6.53;5.93;;;15.20;99.90;;;;;;5031308;28;20190;-55
2023/09/04 06:12:03;;;;;;;7.73;5.93;;;15.20;99.90;;;;;;5034948;28;20618;-55
2023/09/04 06:14:29;;;;;;;6.20;5.53;;;15.30;99.90;;;;;;5033954;28;20238;-55
2023/09/04 06:16:55;;;;;;;9.53;6.33;;;15.40;99.90;;;;;;5032335;28;20293;-55
2023/09/04 06:19:20;;;;;;;7.30;6.40;;;15.50;99.90;;;;;;5041239;28;20225;-55
2023/09/04 06:21:46;;;;;;;9.37;5.73;;;15.70;99.90;;;;;;5025449;28;20198;-55
2023/09/04 06:24:11;;;;;;;9.80;7.20;;;15.70;99.90;;;;;;5038808;28;20408;-55
2023/09/04 06:26:36;;;;;;;7.03;5.30;;;15.90;99.90;;;;;;5042173;28;20198;-55
2023/09/04 06:29:02;;;;;;;6.87;5.67;;;16.00;99.90;;;;;;5042876;28;20203;-54
2023/09/04 06:31:28;;;;;;;6.97;5.97;;;16.10;99.90;;;;;;5037733;28;20226;-55
2023/09/04 06:33:55;;;;;;;7.70;5.43;;;16.20;99.90;;;;;;5037712;28;20260;-55
2023/09/04 06:36:20;;;;;;;7.23;5.53;;;16.20;99.90;;;;;;5038483;28;20252;-56
2023/09/04 06:38:46;;;;;;;13.30;5.97;;;16.30;99.90;;;;;;5027078;28;20236;-56
2023/09/04 06:41:11;;;;;;;13.27;6.70;;;16.40;99.90;;;;;;5040789;28;20580;-56
2023/09/04 06:43:37;;;;;;;8.80;7.03;;;16.50;99.90;;;;;;5030182;28;20244;-56
2023/09/04 06:46:03;;;;;;;7.27;6.57;;;16.60;99.90;;;;;;5041781;28;20199;-55
2023/09/04 06:48:28;;;;;;;7.23;5.50;;;16.70;99.90;;;;;;5020206;28;20230;-60
2023/09/04 06:50:54;;;;;;;8.90;5.80;;;16.90;99.90;;;;;;5032873;28;20687;-56
2023/09/04 06:53:20;;;;;;;9.13;6.47;;;16.90;99.90;;;;;;5034654;28;20203;-56
2023/09/04 06:55:47;;;;;;;8.40;6.03;;;17.00;99.90;;;;;;5034903;28;20200;-57
2023/09/04 06:58:13;;;;;;;9.27;6.47;;;17.10;99.90;;;;;;5038902;28;20235;-56
2023/09/04 07:00:39;;;;;;;9.30;6.80;;;17.10;99.90;;;;;;5039871;28;20688;-55
2023/09/04 07:03:05;;;;;;;9.83;7.03;;;17.10;99.90;;;;;;5041020;28;21154;-55
2023/09/04 07:05:30;;;;;;;15.20;7.60;;;17.40;99.90;;;;;;5034061;28;20665;-55
2023/09/04 07:07:56;;;;;;;8.37;7.03;;;17.50;99.90;;;;;;5036182;28;20222;-56
2023/09/04 07:10:21;;;;;;;11.07;7.07;;;17.50;99.90;;;;;;5042580;28;20270;-56
2023/09/04 07:12:47;;;;;;;7.97;6.37;;;17.50;99.90;;;;;;5019773;28;20937;-56
2023/09/04 07:15:13;;;;;;;6.93;5.53;;;17.60;99.90;;;;;;5037510;28;20200;-56
2023/09/04 07:17:38;;;;;;;6.77;6.10;;;17.50;99.90;;;;;;5037094;28;20228;-55
2023/09/04 07:20:04;;;;;;;10.10;6.50;;;17.50;99.90;;;;;;5038459;28;20303;-55
2023/09/04 07:22:30;;;;;;;8.17;7.30;;;17.50;99.90;;;;;;5042580;28;20190;-56
2023/09/04 07:24:55;;;;;;;9.53;7.00;;;17.40;99.90;;;;;;5043480;28;20223;-56
2023/09/04 07:27:21;;;;;;;9.03;7.90;;;17.40;99.90;;;;;;5035437;28;20282;-54
2023/09/04 07:29:47;;;;;;;16.33;7.97;;;17.40;99.90;;;;;;5038618;28;20203;-57
2023/09/04 07:32:12;;;;;;;11.43;8.03;;;17.40;99.90;;;;;;5038917;28;20195;-57
2023/09/04 07:34:38;;;;;;;7.63;6.93;;;17.50;99.90;;;;;;5035868;28;20576;-57
2023/09/04 07:37:03;;;;;;;7.63;6.73;;;17.60;99.90;;;;;;5039059;28;20223;-53
2023/09/04 07:39:29;;;;;;;8.20;6.87;;;17.70;99.90;;;;;;5016356;28;20236;-56
2023/09/04 07:41:56;;;;;;;9.03;6.80;;;17.80;99.90;;;;;;5035625;28;20225;-56
2023/09/04 07:44:21;;;;;;;6.37;5.73;;;17.80;99.90;;;;;;5012205;28;20881;-54
2023/09/04 07:46:47;;;;;;;6.67;5.50;;;17.90;99.90;;;;;;5037051;28;20239;-56
2023/09/04 07:49:12;;;;;;;6.57;5.17;;;17.90;99.90;;;;;;5040712;28;20199;-56
2023/09/04 07:51:39;;;;;;;7.40;4.90;;;18.00;99.90;;;;;;5039849;28;20202;-55
2023/09/04 07:54:04;;;;;;;6.07;4.80;;;18.10;99.90;;;;;;5031511;28;20201;-56
2023/09/04 07:56:30;;;;;;;5.80;4.80;;;18.10;99.90;;;;;;5037045;28;20198;-56
2023/09/04 07:58:55;;;;;;;5.17;3.83;;;18.10;99.90;;;;;;5036910;28;20231;-57
2023/09/04 08:01:21;;;;;;;5.30;3.97;;;18.20;99.90;;;;;;5036407;28;20623;-57
2023/09/04 08:03:47;;;;;;;4.00;3.50;;;18.30;99.90;;;;;;5035620;28;20205;-58
2023/09/04 08:06:12;;;;;;;3.37;3.03;;;18.30;99.90;;;;;;5035178;28;20217;-58
2023/09/04 08:08:38;;;;;;;3.80;3.40;;;18.40;99.90;;;;;;5020274;28;20206;-58
2023/09/04 08:11:03;;;;;;;4.93;2.83;;;18.40;99.90;;;;;;5036909;28;20882;-57
2023/09/04 08:13:29;;;;;;;3.70;3.40;;;18.50;99.90;;;;;;5032382;28;20218;-55
2023/09/04 08:15:54;;;;;;;4.73;3.30;;;18.50;99.90;;;;;;5040795;28;20200;-54
2023/09/04 08:18:20;;;;;;;4.83;3.50;;;18.70;99.90;;;;;;5038833;28;20232;-54
2023/09/04 08:20:48;;;;;;;4.07;3.70;;;18.80;99.90;;;;;;5032250;28;20218;-55
2023/09/04 08:23:13;;;;;;;5.27;3.87;;;18.80;99.90;;;;;;5032849;28;20195;-55
2023/09/04 08:25:39;;;;;;;5.90;3.63;;;18.90;99.90;;;;;;5031212;28;20647;-55
2023/09/04 08:28:05;;;;;;;5.07;3.40;;;18.90;99.90;;;;;;5030107;28;20197;-57
2023/09/04 08:30:31;;;;;;;3.60;3.10;;;19.00;99.90;;;;;;5031501;28;20204;-56
2023/09/04 08:32:56;;;;;;;4.23;2.90;;;19.10;99.90;;;;;;5033643;28;20210;-56
2023/09/04 08:35:24;;;;;;;2.60;2.40;;;19.10;99.90;;;;;;5037410;28;20232;-57
2023/09/04 08:37:49;;;;;;;4.73;3.30;;;19.20;99.90;;;;;;5032322;28;20228;-60
2023/09/04 08:40:15;;;;;;;3.87;3.50;;;19.20;99.90;;;;;;5015993;28;20220;-61
2023/09/04 08:42:43;;;;;;;6.57;4.30;;;19.20;99.90;;;;;;5031320;28;20718;-63
2023/09/04 08:45:09;;;;;;;3.73;3.40;;;19.30;99.90;;;;;;5032992;28;20296;-61
2023/09/04 08:47:39;;;;;;;12.03;5.00;;;19.30;99.90;;;;;;5032105;28;20710;-54
2023/09/04 08:50:06;;;;;;;5.60;3.63;;;19.40;99.90;;;;;;5034994;28;20677;-55
2023/09/04 08:52:35;;;;;;;5.73;3.97;;;19.50;99.90;;;;;;5033221;28;20206;-54
2023/09/04 08:55:00;;;;;;;8.20;3.93;;;19.50;99.90;;;;;;5032485;28;20328;-55
2023/09/04 08:57:26;;;;;;;6.70;4.07;;;19.50;99.90;;;;;;5038182;28;20244;-61
2023/09/04 08:59:52;;;;;;;5.00;3.70;;;19.60;99.90;;;;;;5034501;28;20203;-60
2023/09/04 09:02:18;;;;;;;5.30;4.80;;;19.60;99.90;;;;;;5031658;28;20189;-60
2023/09/04 09:04:46;;;;;;;7.70;3.50;;;19.70;99.90;;;;;;5029268;28;20331;-60
2023/09/04 09:07:13;;;;;;;5.43;4.17;;;19.80;99.90;;;;;;5028528;28;20715;-60
2023/09/04 09:09:46;;;;;;;8.07;3.10;;;19.90;99.90;;;;;;5015730;28;20200;-56
2023/09/04 09:12:12;;;;;;;6.60;4.07;;;20.00;99.90;;;;;;5030345;28;20297;-54
2023/09/04 09:14:37;;;;;;;3.93;3.43;;;20.00;99.90;;;;;;5035977;28;20285;-64
2023/09/04 09:17:07;;;;;;;6.70;3.27;;;20.00;99.90;;;;;;5042544;28;20689;-62
2023/09/04 09:19:36;;;;;;;4.53;3.10;;;20.00;99.90;;;;;;5032196;28;20213;-63
2023/09/04 09:22:12;;;;;;;4.67;3.20;;;20.10;99.90;;;;;;5034328;28;20301;-63
2023/09/04 09:24:51;;;;;;;2.43;2.17;;;20.10;99.90;;;;;;5030166;28;20293;-64
2023/09/04 09:27:21;;;;;;;4.23;2.87;;;20.30;99.90;;;;;;5030940;28;20277;-60
2023/09/04 09:29:47;;;;;;;4.87;3.50;;;20.30;99.90;;;;;;5037862;28;20205;-58
2023/09/04 09:32:18;;;;;;;4.37;3.93;;;20.40;99.90;;;;;;5034762;28;20193;-59
2023/09/04 09:34:51;;;;;;;3.07;2.83;;;20.40;99.90;;;;;;5039339;28;20388;-63
2023/09/04 09:37:17;;;;;;;5.53;2.93;;;20.60;99.90;;;;;;5038381;28;20217;-65
2023/09/04 09:39:43;;;;;;;3.73;3.13;;;20.70;99.90;;;;;;5034027;28;20229;-63
2023/09/04 09:42:08;;;;;;;4.20;2.87;;;20.70;99.90;;;;;;5015699;28;20278;-66
2023/09/04 09:44:34;;;;;;;6.33;2.90;;;20.60;99.90;;;;;;5013703;28;20213;-64
2023/09/04 09:47:00;;;;;;;5.13;3.00;;;20.70;99.90;;;;;;5042497;28;20677;-61
2023/09/04 09:49:26;;;;;;;3.13;2.93;;;20.70;99.90;;;;;;5022901;28;20201;-59
2023/09/04 09:51:54;;;;;;;4.43;3.43;;;20.70;99.90;;;;;;5038597;28;20293;-57
2023/09/04 09:54:39;;;;;;;4.13;2.87;;;20.70;99.90;;;;;;5038839;28;20194;-60
2023/09/04 09:57:09;;;;;;;2.80;2.60;;;20.90;99.90;;;;;;5036487;28;20212;-60
2023/09/04 09:59:41;;;;;;;4.10;2.67;;;20.90;99.90;;;;;;5039692;28;20948;-56
2023/09/04 10:02:07;;;;;;;3.83;2.83;;;20.90;99.90;;;;;;5030122;28;20278;-57
2023/09/04 10:04:34;;;;;;;4.13;2.70;;;21.00;99.90;;;;;;5036153;28;20198;-56
2023/09/04 10:07:02;;;;;;;5.30;3.47;;;21.00;99.90;;;;;;5037162;28;20208;-55
2023/09/04 10:09:39;;;;;;;4.23;2.80;;;21.10;99.90;;;;;;5023916;28;20747;-55
2023/09/04 10:12:41;;;;;;;4.07;2.73;;;21.10;99.90;;;;;;5043939;28;20198;-56
2023/09/04 10:15:07;;;;;;;6.80;3.30;;;21.20;99.90;;;;;;5029892;28;20209;-57
2023/09/04 10:18:00;;;;;;;6.43;3.10;;;21.20;99.90;;;;;;5035633;28;20215;-59
2023/09/04 10:20:27;;;;;;;4.77;3.00;;;21.20;99.90;;;;;;5035401;28;20206;-63
2023/09/04 10:23:10;;;;;;;3.23;2.93;;;21.10;99.90;;;;;;5033333;28;20348;-64
2023/09/04 10:25:52;;;;;;;3.97;3.10;;;21.20;99.90;;;;;;5032445;28;20738;-65
2023/09/04 10:28:24;;;;;;;3.77;3.23;;;21.30;99.90;;;;;;5038772;28;20701;-59
2023/09/04 10:30:53;;;;;;;2.60;2.40;;;21.60;99.90;;;;;;5018304;28;20227;-59
2023/09/04 10:33:20;;;;;;;7.97;3.10;;;21.60;99.90;;;;;;5035623;28;20196;-59
2023/09/04 10:35:46;;;;;;;5.17;2.67;;;21.60;99.90;;;;;;5034849;28;20199;-60
2023/09/04 10:38:13;;;;;;;6.10;3.30;;;21.60;99.90;;;;;;5032778;28;20218;-60
2023/09/04 10:40:40;;;;;;;2.70;2.50;;;21.60;99.90;;;;;;5037803;28;20260;-58
2023/09/04 10:43:09;;;;;;;3.73;3.10;;;21.60;99.90;;;;;;5036908;28;20210;-59
2023/09/04 10:45:35;;;;;;;4.10;2.20;;;21.60;99.90;;;;;;5036449;28;20551;-61
2023/09/04 10:48:01;;;;;;;2.93;2.57;;;21.70;99.90;;;;;;5037604;28;20250;-59
2023/09/04 10:50:29;;;;;;;2.67;2.30;;;21.90;99.90;;;;;;5017389;28;20602;-64
2023/09/04 10:52:57;;;;;;;2.70;2.50;;;22.00;99.90;;;;;;5034916;28;20319;-64
2023/09/04 10:55:24;;;;;;;6.70;4.63;;;22.20;99.90;;;;;;5034621;28;20195;-62
2023/09/04 10:57:57;;;;;;;4.57;2.85;;;22.30;99.90;;;;;;5036607;28;20226;-65
2023/09/04 11:00:41;;;;;;;4.73;2.40;;;22.40;99.90;;;;;;5033911;28;20253;-62
2023/09/04 11:03:14;;;;;;;3.10;2.83;;;22.40;99.90;;;;;;5034672;28;20738;-58
2023/09/04 11:06:01;;;;;;;4.65;2.80;;;22.20;99.90;;;;;;5033730;28;20285;-57
2023/09/04 11:08:28;;;;;;;4.63;2.63;;;22.00;99.90;;;;;;5030926;28;21171;-55
2023/09/04 11:11:02;;;;;;;2.65;2.45;;;22.10;99.90;;;;;;5027903;28;20682;-55
2023/09/04 11:13:27;;;;;;;3.45;2.35;;;22.30;99.90;;;;;;5037401;28;20222;-56
2023/09/04 11:15:57;;;;;;;4.50;2.40;;;22.60;99.90;;;;;;5031823;28;20306;-56
2023/09/04 11:18:29;;;;;;;2.80;2.60;;;22.90;99.90;;;;;;5031278;28;20390;-63
2023/09/04 11:20:55;;;;;;;5.55;3.33;;;23.30;99.90;;;;;;5034595;28;20287;-63
2023/09/04 11:23:23;;;;;;;2.15;2.05;;;23.10;99.90;;;;;;5037091;28;20362;-59
2023/09/04 11:25:52;;;;;;;2.50;2.30;;;23.90;99.90;;;;;;5038255;28;20262;-60
2023/09/04 11:28:22;;;;;;;3.10;2.38;;;24.30;99.80;;;;;;5036358;28;20201;-59
2023/09/04 11:30:48;;;;;;;3.83;1.95;;;24.80;99.30;;;;;;5032557;28;20202;-61
2023/09/04 11:33:14;;;;;;;3.03;2.42;;;24.20;99.20;;;;;;5030301;28;20205;-60
2023/09/04 11:35:39;;;;;;;2.50;2.30;;;24.90;98.60;;;;;;5034611;28;20542;-58
2023/09/04 11:38:25;;;;;;;2.55;2.28;;;25.50;96.60;;;;;;5035794;28;20291;-57
2023/09/04 11:40:50;;;;;;;2.55;2.35;;;25.60;97.50;;;;;;5021817;28;20199;-56
2023/09/04 11:43:16;;;;;;;1.95;1.85;;;24.70;99.20;;;;;;5041226;28;20232;-57
2023/09/04 11:45:42;;;;;;;5.13;1.90;;;24.60;97.00;;;;;;5036637;28;20202;-60
2023/09/04 11:48:07;;;;;;;3.38;2.10;;;24.40;98.60;;;;;;5037252;28;20863;-62
2023/09/04 11:50:33;;;;;;;2.00;1.80;;;24.20;99.10;;;;;;5039124;28;20244;-62
2023/09/04 11:52:59;;;;;;;1.92;1.83;;;24.10;98.80;;;;;;5036904;28;20608;-60
2023/09/04 11:55:25;;;;;;;2.38;1.95;;;23.90;99.40;;;;;;5030717;28;20198;-59
2023/09/04 11:57:50;;;;;;;2.17;2.03;;;24.30;98.00;;;;;;5012456;28;20245;-60
2023/09/04 12:00:16;;;;;;;3.13;1.83;;;23.90;99.10;;;;;;5032691;28;20202;-61
2023/09/04 12:02:44;;;;;;;2.88;2.42;;;24.10;98.80;;;;;;5032161;28;20266;-65
2023/09/04 12:05:14;;;;;;;2.15;1.98;;;24.70;98.40;;;;;;5031860;28;20237;-56
2023/09/04 12:07:40;;;;;;;2.10;2.00;;;25.00;98.10;;;;;;5032727;28;20202;-57
2023/09/04 12:10:10;;;;;;;2.72;2.53;;;25.10;98.30;;;;;;5027592;28;20273;-56
2023/09/04 12:12:35;;;;;;;2.10;2.00;;;25.30;97.80;;;;;;5034809;28;20220;-57
2023/09/04 12:15:01;;;;;;;4.13;2.20;;;25.40;97.90;;;;;;5040924;28;20202;-57
2023/09/04 12:17:30;;;;;;;2.67;1.75;;;26.10;95.20;;;;;;5037660;28;20202;-59
2023/09/04 12:19:56;;;;;;;2.28;2.17;;;26.20;95.70;;;;;;5027949;28;20205;-57
2023/09/04 12:22:21;;;;;;;2.13;1.98;;;25.30;97.50;;;;;;5032857;28;20206;-58
2023/09/04 12:25:07;;;;;;;1.85;1.75;;;24.80;97.80;;;;;;5034429;28;20207;-58
2023/09/04 12:27:34;;;;;;;2.17;2.08;;;24.70;97.70;;;;;;5033640;28;20198;-56
2023/09/04 12:30:00;;;;;;;4.25;2.10;;;24.70;97.50;;;;;;5041520;28;20202;-57
2023/09/04 12:32:26;;;;;;;2.70;2.00;;;25.10;97.70;;;;;;5037702;28;20209;-57
2023/09/04 12:35:00;;;;;;;3.67;2.15;;;25.50;97.40;;;;;;5029086;28;20199;-60
2023/09/04 12:37:28;;;;;;;2.53;2.33;;;27.10;92.50;;;;;;5032491;28;20577;-60
2023/09/04 12:39:54;;;;;;;4.30;2.03;;;27.60;91.50;;;;;;5034457;28;20309;-56
2023/09/04 12:42:19;;;;;;;9.15;2.28;;;27.60;92.20;;;;;;5030992;28;20198;-57
2023/09/04 12:44:44;;;;;;;2.35;2.13;;;27.20;92.60;;;;;;5035890;28;20211;-57